Time;durP1;ratioP1;P1;durP2;ratioP2;P2;SDS_P1;SDS_P2;PMS_P1;PMS_P2;Temp;Humidity;BMP_temperature;BMP_pressure;BME280_temperature;BME280_humidity;BME280_pressure;Samples;Min_cycle;Max_cycle;Signal;HPM_P1;HPM_P2
2021/06/21 00:01:19;;;;;;;16.50;3.88;;;;;;;20.17;48.48;94484.22;5075611;28;20109;-65
2021/06/21 00:03:44;;;;;;;14.45;3.95;;;;;;;20.18;47.86;94477.72;5074874;28;20065;-65
2021/06/21 00:06:10;;;;;;;14.55;4.10;;;;;;;19.94;48.92;94468.19;5078907;28;20101;-65
2021/06/21 00:08:35;;;;;;;13.18;4.35;;;;;;;19.84;49.29;94463.59;5081552;28;20084;-65
2021/06/21 00:11:01;;;;;;;17.38;3.78;;;;;;;19.95;48.78;94456.31;5072308;28;20182;-65
2021/06/21 00:13:26;;;;;;;13.27;3.97;;;;;;;20.03;48.80;94468.53;5071970;28;20381;-65
2021/06/21 00:15:53;;;;;;;11.65;3.38;;;;;;;19.99;48.96;94482.81;5077533;28;20080;-65
2021/06/21 00:18:19;;;;;;;16.48;4.97;;;;;;;19.85;49.19;94496.78;5074250;28;20499;-65
2021/06/21 00:20:46;;;;;;;12.38;3.65;;;;;;;19.85;48.76;94508.41;5079416;28;20141;-65
2021/06/21 00:23:12;;;;;;;10.63;3.60;;;;;;;19.93;49.28;94506.28;5083158;28;20119;-65
2021/06/21 00:25:37;;;;;;;11.30;3.60;;;;;;;19.93;48.69;94507.09;5065410;28;20101;-65
2021/06/21 00:28:02;;;;;;;11.25;3.90;;;;;;;19.41;49.51;94519.56;5066541;28;20097;-64
2021/06/21 00:30:28;;;;;;;11.65;3.85;;;;;;;19.53;49.11;94535.53;5079694;28;20195;-64
2021/06/21 00:32:55;;;;;;;10.80;3.35;;;;;;;19.49;49.50;94529.84;5069520;28;20092;-65
2021/06/21 00:35:21;;;;;;;9.55;3.50;;;;;;;19.54;49.25;94537.97;5068988;28;20593;-64
2021/06/21 00:37:46;;;;;;;11.60;3.53;;;;;;;19.39;49.22;94546.78;5066836;28;20284;-65
2021/06/21 00:40:12;;;;;;;9.30;3.83;;;;;;;19.53;49.86;94551.72;5070089;28;20115;-64
2021/06/21 00:42:40;;;;;;;9.05;3.50;;;;;;;19.43;50.06;94547.06;5067274;28;20120;-64
2021/06/21 00:45:07;;;;;;;11.20;3.50;;;;;;;19.03;51.14;94555.41;5069465;28;20081;-64
2021/06/21 00:47:32;;;;;;;10.85;3.45;;;;;;;19.11;50.80;94542.53;5069375;28;20150;-64
2021/06/21 00:49:58;;;;;;;10.68;3.25;;;;;;;19.24;50.17;94549.38;5070320;28;20124;-64
2021/06/21 00:52:23;;;;;;;7.32;3.55;;;;;;;18.89;50.18;94543.44;5068926;28;20096;-64
2021/06/21 00:54:59;;;;;;;11.90;3.53;;;;;;;18.73;51.25;94548.69;5071251;28;20104;-64
2021/06/21 00:57:35;;;;;;;9.90;2.95;;;;;;;18.65;49.46;94549.16;5072042;28;20139;-64
2021/06/21 01:00:05;;;;;;;11.73;3.42;;;;;;;18.56;50.36;94549.59;5071247;28;20633;-64
2021/06/21 01:02:31;;;;;;;11.45;2.97;;;;;;;18.67;51.23;94550.53;5072852;28;20666;-64
2021/06/21 01:04:56;;;;;;;10.73;2.47;;;;;;;18.78;50.94;94534.47;5071625;28;20077;-64
2021/06/21 01:07:22;;;;;;;7.10;2.50;;;;;;;18.51;51.28;94549.56;5074236;28;20101;-65
2021/06/21 01:09:51;;;;;;;12.60;2.80;;;;;;;18.67;50.77;94555.94;5072525;28;20104;-64
2021/06/21 01:12:46;;;;;;;8.02;2.40;;;;;;;18.89;50.31;94538.03;5056390;28;20180;-64
2021/06/21 01:15:12;;;;;;;5.20;2.42;;;;;;;18.34;50.82;94530.00;5057513;28;20799;-64
2021/06/21 01:17:55;;;;;;;10.90;2.60;;;;;;;18.13;51.67;94527.09;5082958;28;20124;-64
2021/06/21 01:20:38;;;;;;;7.82;2.45;;;;;;;18.48;51.59;94528.53;5072922;28;20073;-64
2021/06/21 01:23:25;;;;;;;10.50;2.80;;;;;;;18.51;50.95;94528.00;5068753;28;20109;-64
2021/06/21 01:26:07;;;;;;;13.25;2.88;;;;;;;18.14;52.37;94528.72;5066893;28;20577;-64
2021/06/21 01:28:48;;;;;;;12.32;3.30;;;;;;;18.17;52.94;94526.34;5054919;28;20068;-64
2021/06/21 01:31:15;;;;;;;8.07;3.28;;;;;;;17.79;53.31;94528.84;5073041;28;20117;-64
2021/06/21 01:33:40;;;;;;;10.33;2.87;;;;;;;17.41;53.81;94539.41;5068360;28;20100;-64
2021/06/21 01:36:07;;;;;;;9.75;2.97;;;;;;;17.44;53.90;94531.91;5050870;28;20135;-64
2021/06/21 01:38:54;;;;;;;8.90;2.72;;;;;;;17.75;52.93;94527.72;5068204;28;20105;-64
2021/06/21 01:41:24;;;;;;;11.40;2.92;;;;;;;17.95;52.11;94526.34;5069308;28;20091;-64
2021/06/21 01:43:50;;;;;;;9.60;2.92;;;;;;;16.44;56.38;94540.31;5050551;28;20135;-64
2021/06/21 01:46:17;;;;;;;8.00;2.50;;;;;;;16.88;55.43;94534.31;5070102;28;20112;-64
2021/06/21 01:48:50;;;;;;;9.48;2.60;;;;;;;17.06;54.25;94529.72;5070691;28;20619;-64
2021/06/21 01:51:17;;;;;;;13.20;3.10;;;;;;;17.41;53.66;94522.47;5052648;28;20111;-64
2021/06/21 01:53:42;;;;;;;12.70;3.07;;;;;;;17.67;53.40;94520.91;5067544;28;20100;-64
2021/06/21 01:56:11;;;;;;;8.43;2.63;;;;;;;17.42;53.30;94518.69;5055776;28;20081;-64
2021/06/21 01:58:38;;;;;;;10.00;3.42;;;;;;;17.67;52.59;94509.31;5067785;28;20107;-64
2021/06/21 02:01:04;;;;;;;16.40;3.30;;;;;;;17.00;54.29;94518.09;5073196;28;20080;-64
2021/06/21 02:03:30;;;;;;;9.10;2.67;;;;;;;17.81;52.51;94509.75;5052662;28;20421;-64
2021/06/21 02:05:55;;;;;;;11.30;3.10;;;;;;;17.48;52.56;94512.34;5054803;28;20101;-64
2021/06/21 02:08:21;;;;;;;11.13;3.13;;;;;;;17.93;51.81;94504.28;5069854;28;20589;-64
2021/06/21 02:10:51;;;;;;;10.13;2.78;;;;;;;18.07;51.00;94510.06;5076757;28;20180;-64
2021/06/21 02:13:18;;;;;;;10.98;2.90;;;;;;;18.08;50.50;94503.59;5070748;28;20114;-64
2021/06/21 02:15:44;;;;;;;10.27;3.10;;;;;;;18.08;50.78;94506.31;5060077;28;20114;-64
2021/06/21 02:18:12;;;;;;;9.65;2.72;;;;;;;18.28;50.70;94496.81;5071210;28;20109;-64
2021/06/21 02:20:37;;;;;;;16.70;3.50;;;;;;;17.42;52.80;94497.19;5055316;28;20388;-64
2021/06/21 02:23:03;;;;;;;10.63;2.78;;;;;;;17.47;52.68;94499.13;5054086;28;20113;-64
2021/06/21 02:25:28;;;;;;;7.50;2.65;;;;;;;17.92;51.68;94492.69;5064951;28;20575;-64
2021/06/21 02:27:54;;;;;;;11.95;2.80;;;;;;;18.02;51.96;94497.34;5065916;28;20418;-64
2021/06/21 02:30:20;;;;;;;10.75;3.05;;;;;;;18.18;51.26;94498.34;5077172;28;20108;-64
2021/06/21 02:32:46;;;;;;;13.52;3.20;;;;;;;18.22;51.17;94501.31;5049649;28;20104;-64
2021/06/21 02:35:12;;;;;;;13.00;3.47;;;;;;;18.04;51.52;94514.09;5050134;28;20613;-64
2021/06/21 02:37:38;;;;;;;11.38;4.38;;;;;;;18.25;50.94;94511.59;5066659;28;20100;-64
2021/06/21 02:40:05;;;;;;;12.00;3.10;;;;;;;18.35;50.45;94496.63;5069931;28;20518;-64
2021/06/21 02:42:31;;;;;;;12.90;3.22;;;;;;;18.41;50.09;94495.56;5066927;28;20138;-64
2021/06/21 02:44:56;;;;;;;18.23;4.13;;;;;;;18.17;50.22;94501.28;5070589;28;20077;-64
2021/06/21 02:47:22;;;;;;;10.07;3.15;;;;;;;18.21;50.07;94498.88;5067403;28;20101;-64
2021/06/21 02:49:47;;;;;;;10.23;2.60;;;;;;;18.22;50.32;94512.09;5071328;28;20137;-64
2021/06/21 02:52:24;;;;;;;13.50;3.20;;;;;;;18.05;50.80;94514.88;5050617;28;20511;-64
2021/06/21 02:55:29;;;;;;;13.63;3.22;;;;;;;18.20;50.72;94516.13;5067497;28;20111;-64
2021/06/21 02:58:14;;;;;;;11.48;3.40;;;;;;;18.27;49.91;94514.88;5045045;28;20121;-64
2021/06/21 03:00:40;;;;;;;10.50;2.90;;;;;;;18.31;49.79;94515.97;5071540;28;20076;-64
2021/06/21 03:03:08;;;;;;;11.77;3.22;;;;;;;18.13;50.49;94517.16;5070722;28;20473;-64
2021/06/21 03:05:33;;;;;;;12.77;2.60;;;;;;;18.33;50.01;94504.13;5065786;28;20537;-64
2021/06/21 03:07:59;;;;;;;10.57;3.58;;;;;;;18.29;50.07;94507.31;5057092;28;20088;-64
2021/06/21 03:10:24;;;;;;;8.32;2.78;;;;;;;18.25;49.95;94500.81;5079363;28;20123;-64
2021/06/21 03:12:49;;;;;;;9.52;2.75;;;;;;;18.46;49.47;94511.78;5073835;28;20080;-64
2021/06/21 03:15:19;;;;;;;12.65;4.00;;;;;;;18.00;50.53;94518.34;5075924;28;20119;-64
2021/06/21 03:17:44;;;;;;;11.70;2.78;;;;;;;17.60;50.99;94516.75;5073580;28;20561;-64
2021/06/21 03:20:11;;;;;;;6.45;2.70;;;;;;;17.64;51.10;94517.91;5080369;28;20075;-64
2021/06/21 03:22:39;;;;;;;13.40;5.68;;;;;;;17.50;51.14;94520.13;5061810;28;20158;-64
2021/06/21 03:25:04;;;;;;;;;;;;;;;16.57;52.76;94533.00;5079226;28;20109;-64
2021/06/21 03:27:30;;;;;;;9.70;2.60;;;;;;;16.85;52.80;94537.47;5075522;28;20024;-64
2021/06/21 03:29:57;;;;;;;9.73;2.42;;;;;;;16.69;52.96;94541.78;5079423;28;20113;-64
2021/06/21 03:32:27;;;;;;;10.88;4.50;;;;;;;16.74;52.40;94539.19;5070867;28;20093;-64
2021/06/21 03:35:04;;;;;;;10.98;3.50;;;;;;;16.94;51.86;94553.19;5066919;28;20105;-64
2021/06/21 03:37:29;;;;;;;9.20;3.20;;;;;;;17.05;51.69;94544.22;5051934;28;20538;-64
2021/06/21 03:39:55;;;;;;;10.82;2.35;;;;;;;16.88;51.76;94545.06;5070143;28;20340;-64
2021/06/21 03:42:21;;;;;;;18.60;8.00;;;;;;;15.61;54.55;94554.81;5067637;28;20128;-64
2021/06/21 03:44:47;;;;;;;8.77;2.40;;;;;;;16.45;53.28;94549.97;5069206;28;20085;-64
2021/06/21 03:47:13;;;;;;;14.52;4.13;;;;;;;16.96;51.35;94543.81;5070411;28;20486;-64
2021/06/21 03:49:41;;;;;;;12.98;4.78;;;;;;;16.28;53.30;94547.22;5077658;28;20112;-64
2021/06/21 03:52:06;;;;;;;11.05;3.80;;;;;;;15.48;56.47;94553.16;5072548;28;20081;-64
2021/06/21 03:54:32;;;;;;;10.35;3.60;;;;;;;14.59;59.36;94547.63;5068568;28;20377;-64
2021/06/21 03:56:57;;;;;;;12.95;2.90;;;;;;;15.11;57.13;94543.50;5073543;28;20080;-64
2021/06/21 03:59:22;;;;;;;10.68;2.92;;;;;;;16.37;53.46;94540.47;5070057;28;20105;-64
2021/06/21 04:01:49;;;;;;;8.68;2.92;;;;;;;16.51;52.92;94538.28;5077070;28;20107;-64
2021/06/21 04:04:14;;;;;;;10.32;2.95;;;;;;;16.61;52.96;94531.44;5068810;28;20108;-64
2021/06/21 04:06:39;;;;;;;10.02;4.65;;;;;;;16.64;52.35;94533.66;5073568;28;20135;-64
2021/06/21 04:09:05;;;;;;;7.63;2.30;;;;;;;17.14;51.40;94540.09;5075300;28;20138;-64
2021/06/21 04:11:30;;;;;;;10.43;2.55;;;;;;;16.83;51.55;94536.91;5073402;28;20124;-64
2021/06/21 04:13:57;;;;;;;10.15;3.83;;;;;;;16.07;53.33;94549.53;5072505;28;20166;-64
2021/06/21 04:16:22;;;;;;;8.95;2.50;;;;;;;16.48;52.91;94546.81;5066328;28;20457;-64
2021/06/21 04:18:48;;;;;;;8.15;3.90;;;;;;;16.15;53.99;94552.91;5068287;28;20101;-64
2021/06/21 04:21:13;;;;;;;9.55;3.42;;;;;;;15.56;55.44;94554.69;5073784;28;20073;-64
2021/06/21 04:23:39;;;;;;;7.55;2.22;;;;;;;16.35;53.35;94545.25;5070768;28;20142;-64
2021/06/21 04:26:04;;;;;;;9.00;2.60;;;;;;;16.68;52.15;94550.91;5068253;28;20108;-64
2021/06/21 04:28:30;;;;;;;5.18;2.40;;;;;;;16.78;51.81;94550.25;5070014;28;20092;-64
2021/06/21 04:30:55;;;;;;;10.25;2.15;;;;;;;17.06;51.31;94542.38;5077168;28;20588;-64
2021/06/21 04:33:20;;;;;;;5.93;2.33;;;;;;;17.28;50.72;94550.53;5071375;28;20287;-64
2021/06/21 04:35:46;;;;;;;7.15;2.95;;;;;;;17.40;50.46;94542.31;5069570;28;20095;-64
2021/06/21 04:38:11;;;;;;;9.43;2.42;;;;;;;17.49;50.05;94554.31;5071536;28;20108;-64
2021/06/21 04:40:37;;;;;;;7.32;2.53;;;;;;;17.50;49.84;94560.50;5072010;28;20097;-64
2021/06/21 04:43:03;;;;;;;15.38;5.15;;;;;;;17.30;50.32;94555.66;5071046;28;20540;-64
2021/06/21 04:45:29;;;;;;;15.50;4.75;;;;;;;16.33;52.63;94562.63;5068327;28;20084;-64
2021/06/21 04:47:54;;;;;;;9.20;3.00;;;;;;;17.17;50.56;94554.94;5076491;28;20071;-64
2021/06/21 04:50:20;;;;;;;15.43;7.38;;;;;;;16.86;51.30;94565.19;5070481;28;20550;-64
2021/06/21 04:52:46;;;;;;;11.18;5.20;;;;;;;16.56;52.23;94558.22;5074810;28;20096;-64
2021/06/21 04:55:13;;;;;;;11.25;3.65;;;;;;;16.76;51.91;94557.78;5071184;28;20108;-64
2021/06/21 04:57:38;;;;;;;8.25;3.20;;;;;;;17.33;50.42;94552.47;5073493;28;20100;-64
2021/06/21 05:00:08;;;;;;;9.75;3.03;;;;;;;16.83;51.31;94561.09;5071600;28;20076;-64
2021/06/21 05:02:34;;;;;;;11.10;2.92;;;;;;;17.02;50.63;94563.53;5077502;28;20103;-64
2021/06/21 05:04:59;;;;;;;8.40;3.05;;;;;;;17.27;50.12;94559.66;5069728;28;20449;-64
2021/06/21 05:07:24;;;;;;;12.85;5.43;;;;;;;17.40;49.74;94559.28;5075755;28;20112;-64
2021/06/21 05:09:50;;;;;;;8.68;3.30;;;;;;;17.07;50.65;94560.13;5076200;28;20105;-64
2021/06/21 05:12:16;;;;;;;11.30;3.22;;;;;;;17.07;50.39;94566.31;5066540;28;20088;-64
2021/06/21 05:14:41;;;;;;;15.25;3.10;;;;;;;17.17;50.23;94554.13;5066384;28;20162;-64
2021/06/21 05:17:07;;;;;;;8.07;2.50;;;;;;;17.37;49.68;94554.41;5065647;28;20104;-64
2021/06/21 05:19:35;;;;;;;7.97;2.53;;;;;;;17.49;49.72;94550.78;5068078;28;20100;-64
2021/06/21 05:22:02;;;;;;;9.10;2.60;;;;;;;17.61;49.26;94554.19;5070660;28;20115;-64
2021/06/21 05:24:28;;;;;;;8.83;2.60;;;;;;;17.41;49.67;94554.75;5067700;28;20269;-64
2021/06/21 05:26:53;;;;;;;9.88;2.78;;;;;;;16.68;51.04;94560.84;5067659;28;20587;-64
2021/06/21 05:29:18;;;;;;;3.42;2.13;;;;;;;17.10;50.79;94559.63;5076367;28;20096;-64
2021/06/21 05:31:44;;;;;;;8.23;2.90;;;;;;;17.13;50.62;94564.53;5071891;28;20092;-64
2021/06/21 05:34:09;;;;;;;6.03;2.15;;;;;;;17.03;51.20;94559.78;5065747;28;20277;-65
2021/06/21 05:36:35;;;;;;;5.00;2.42;;;;;;;17.02;51.02;94561.69;5068322;28;20138;-65
2021/06/21 05:39:01;;;;;;;5.38;2.40;;;;;;;17.24;50.59;94550.19;5070414;28;20096;-65
2021/06/21 05:41:26;;;;;;;6.18;2.25;;;;;;;16.73;52.07;94563.63;5072506;28;20084;-64
2021/06/21 05:43:51;;;;;;;4.90;2.00;;;;;;;16.96;50.93;94559.94;5077051;28;20432;-64
2021/06/21 05:46:17;;;;;;;2.47;2.28;;;;;;;16.94;51.29;94550.50;5062435;28;20345;-64
2021/06/21 05:48:42;;;;;;;5.80;1.90;;;;;;;17.41;50.47;94549.34;5063196;28;20573;-64
2021/06/21 05:51:08;;;;;;;4.07;2.10;;;;;;;17.09;51.68;94558.81;5065468;28;20517;-64
2021/06/21 05:53:33;;;;;;;6.38;2.72;;;;;;;16.07;54.16;94562.97;5068938;28;20422;-64
2021/06/21 05:55:59;;;;;;;7.05;3.10;;;;;;;16.21;54.03;94554.63;5067043;28;20073;-64
2021/06/21 05:58:24;;;;;;;8.20;3.80;;;;;;;15.84;54.78;94548.56;5067689;28;20212;-63
2021/06/21 06:00:50;;;;;;;6.80;3.60;;;;;;;15.85;54.77;94563.59;5073121;28;20112;-64
2021/06/21 06:03:15;;;;;;;10.43;5.05;;;;;;;15.68;55.25;94562.72;5070853;28;20140;-64
2021/06/21 06:05:40;;;;;;;8.52;4.18;;;;;;;15.42;55.99;94564.81;5073922;28;20119;-64
2021/06/21 06:08:06;;;;;;;6.75;3.13;;;;;;;15.84;54.73;94571.91;5071719;28;20084;-64
2021/06/21 06:10:31;;;;;;;11.43;5.90;;;;;;;14.76;58.20;94565.75;5067715;28;20096;-64
2021/06/21 06:12:57;;;;;;;10.07;3.50;;;;;;;15.11;56.68;94573.00;5065173;28;20864;-64
2021/06/21 06:15:23;;;;;;;9.88;4.07;;;;;;;15.55;55.70;94566.44;5063557;28;20571;-64
2021/06/21 06:17:49;;;;;;;12.18;6.97;;;;;;;14.75;58.15;94572.16;5062478;28;20100;-64
2021/06/21 06:20:15;;;;;;;10.32;3.28;;;;;;;15.04;56.78;94589.19;5070769;28;20075;-64
2021/06/21 06:22:40;;;;;;;13.18;7.40;;;;;;;15.49;56.08;94579.75;5068358;28;20211;-64
2021/06/21 06:25:06;;;;;;;9.98;3.00;;;;;;;15.39;55.87;94582.19;5065526;28;20534;-64
2021/06/21 06:27:32;;;;;;;9.40;3.40;;;;;;;15.73;54.91;94577.06;5063412;28;20127;-64
2021/06/21 06:29:57;;;;;;;8.63;4.10;;;;;;;15.78;55.56;94583.59;5067903;28;20105;-64
2021/06/21 06:32:23;;;;;;;9.50;4.43;;;;;;;15.91;54.11;94588.69;5066514;28;20283;-64
2021/06/21 06:34:48;;;;;;;13.05;8.30;;;;;;;15.86;54.71;94592.09;5077058;28;20120;-64
2021/06/21 06:37:14;;;;;;;10.07;3.70;;;;;;;14.80;57.67;94596.38;5063855;28;20104;-64
2021/06/21 06:39:39;;;;;;;6.97;3.40;;;;;;;14.97;57.18;94599.22;5065772;28;20099;-64
2021/06/21 06:42:05;;;;;;;10.07;2.97;;;;;;;16.12;53.91;94594.47;5039355;28;20133;-64
2021/06/21 06:44:30;;;;;;;5.60;3.13;;;;;;;15.72;55.49;94596.91;5060072;28;20083;-64
2021/06/21 06:46:56;;;;;;;11.60;5.70;;;;;;;16.21;53.77;94600.25;5074683;28;20109;-64
2021/06/21 06:49:21;;;;;;;9.18;4.03;;;;;;;16.25;54.08;94602.22;5071514;28;20096;-64
2021/06/21 06:51:51;;;;;;;17.70;10.65;;;;;;;16.41;52.97;94597.19;5071065;28;20480;-64
2021/06/21 06:56:58;;;;;;;14.57;8.50;;;;;;;16.04;54.28;94605.59;5071977;28;20085;-64
2021/06/21 06:59:25;;;;;;;17.52;7.82;;;;;;;16.44;53.58;94599.41;5070707;28;20552;-64
2021/06/21 07:01:50;;;;;;;8.63;5.67;;;;;;;16.96;51.93;94602.97;5067646;28;20215;-64
2021/06/21 07:04:16;;;;;;;10.02;4.15;;;;;;;17.08;51.43;94602.06;5072336;28;20087;-64
2021/06/21 07:06:41;;;;;;;9.55;2.75;;;;;;;17.70;50.18;94597.63;5047729;28;20727;-64
2021/06/21 07:09:07;;;;;;;13.32;7.80;;;;;;;17.86;49.17;94597.88;5068733;28;20494;-64
2021/06/21 07:11:36;;;;;;;10.07;5.40;;;;;;;18.25;48.42;94599.69;5070860;28;20104;-64
2021/06/21 07:14:05;;;;;;;12.77;4.60;;;;;;;17.23;49.56;94607.72;5069243;28;20108;-64
2021/06/21 07:16:31;;;;;;;9.65;5.00;;;;;;;17.26;50.05;94611.78;5070904;28;20471;-65
2021/06/21 07:18:57;;;;;;;7.85;3.03;;;;;;;17.59;49.50;94614.69;5066422;28;20174;-64
2021/06/21 07:21:22;;;;;;;8.57;2.95;;;;;;;18.12;49.07;94601.69;5070353;28;20081;-64
2021/06/21 07:23:48;;;;;;;9.48;2.70;;;;;;;18.11;48.60;94601.94;5070634;28;20081;-64
2021/06/21 07:26:13;;;;;;;10.55;7.55;;;;;;;17.38;51.23;94609.03;5062851;28;20703;-64
2021/06/21 07:28:38;;;;;;;7.68;3.83;;;;;;;17.36;50.89;94595.00;5072110;28;20077;-64
2021/06/21 07:31:04;;;;;;;11.27;6.78;;;;;;;16.71;53.00;94604.19;5074193;28;20112;-64
2021/06/21 07:33:31;;;;;;;4.93;2.80;;;;;;;18.12;49.77;94595.50;5075444;28;20138;-64
2021/06/21 07:35:57;;;;;;;12.95;8.38;;;;;;;18.09;47.74;94590.59;5065360;28;20518;-64
2021/06/21 07:38:23;;;;;;;7.78;2.47;;;;;;;18.59;46.58;94598.72;5075402;28;20420;-64
2021/06/21 07:40:48;;;;;;;9.52;3.97;;;;;;;18.26;48.17;94593.22;5072625;28;20577;-65
2021/06/21 07:43:13;;;;;;;7.32;3.42;;;;;;;19.40;46.17;94596.16;5068105;28;20156;-64
2021/06/21 07:45:41;;;;;;;7.50;2.50;;;;;;;18.92;47.24;94613.84;5074900;28;20116;-64
2021/06/21 07:48:06;;;;;;;10.35;4.22;;;;;;;19.21;45.74;94610.84;5063932;28;20550;-64
2021/06/21 07:50:32;;;;;;;8.68;4.03;;;;;;;18.64;47.84;94612.25;5068011;28;20111;-64
2021/06/21 07:52:58;;;;;;;8.70;3.63;;;;;;;17.89;49.79;94619.72;5062219;28;20496;-64
2021/06/21 07:55:24;;;;;;;9.20;3.72;;;;;;;19.19;46.03;94617.56;5060766;28;20757;-64
2021/06/21 07:57:51;;;;;;;4.93;2.33;;;;;;;18.92;46.23;94629.22;5067700;28;20188;-64
2021/06/21 08:00:19;;;;;;;7.83;2.50;;;;;;;19.19;46.19;94625.66;5066956;28;20085;-64
2021/06/21 08:02:45;;;;;;;5.80;2.40;;;;;;;19.74;45.26;94625.53;5065720;28;20111;-64
2021/06/21 08:05:11;;;;;;;5.50;2.10;;;;;;;18.76;48.37;94636.34;5068136;28;20081;-64
2021/06/21 08:07:36;;;;;;;6.57;2.78;;;;;;;19.16;45.65;94631.56;5065366;28;20104;-64
2021/06/21 08:10:02;;;;;;;7.43;2.40;;;;;;;17.73;49.14;94642.06;5065429;28;20105;-63
2021/06/21 08:12:27;;;;;;;4.90;2.40;;;;;;;16.93;50.72;94645.66;5066223;28;20120;-64
2021/06/21 08:14:53;;;;;;;5.68;2.42;;;;;;;17.48;49.73;94640.66;5071519;28;20100;-64
2021/06/21 08:17:18;;;;;;;8.07;2.58;;;;;;;18.13;48.44;94637.50;5070810;28;20440;-64
2021/06/21 08:19:45;;;;;;;6.68;2.33;;;;;;;19.25;45.65;94643.53;5066113;28;20073;-64
2021/06/21 08:22:10;;;;;;;3.63;2.03;;;;;;;19.17;45.37;94636.72;5071246;28;20199;-64
2021/06/21 08:24:37;;;;;;;6.68;2.50;;;;;;;19.25;45.82;94656.19;5068224;28;20089;-64
2021/06/21 08:27:03;;;;;;;4.35;1.83;;;;;;;19.13;44.92;94642.88;5067099;28;20553;-64
2021/06/21 08:29:28;;;;;;;4.63;2.00;;;;;;;19.11;45.37;94648.53;5068627;28;20457;-64
2021/06/21 08:31:54;;;;;;;6.35;2.00;;;;;;;18.92;45.52;94645.38;5069642;28;20111;-64
2021/06/21 08:34:19;;;;;;;7.57;1.67;;;;;;;18.72;46.04;94644.13;5067384;28;20112;-64
2021/06/21 08:36:45;;;;;;;8.25;2.20;;;;;;;17.74;46.81;94665.25;5070812;28;20112;-64
2021/06/21 08:39:10;;;;;;;2.80;1.48;;;;;;;17.58;47.18;94665.03;5070745;28;20105;-64
2021/06/21 08:41:38;;;;;;;6.13;2.30;;;;;;;17.97;47.15;94658.84;5066831;28;20097;-64
2021/06/21 08:44:04;;;;;;;2.75;1.85;;;;;;;17.17;48.04;94665.19;5063577;28;20117;-64
2021/06/21 08:46:29;;;;;;;5.15;1.73;;;;;;;18.04;47.11;94656.81;5070763;28;20126;-64
2021/06/21 08:48:58;;;;;;;8.05;2.08;;;;;;;16.84;48.60;94680.16;5071281;28;20556;-64
2021/06/21 08:51:23;;;;;;;4.53;1.90;;;;;;;15.66;51.83;94672.94;5069389;28;20124;-64
2021/06/21 08:53:49;;;;;;;4.35;1.70;;;;;;;16.30;49.83;94676.72;5066378;28;20097;-63
2021/06/21 08:56:14;;;;;;;4.80;2.03;;;;;;;17.00;48.24;94673.22;5070177;28;20437;-64
2021/06/21 08:58:40;;;;;;;4.65;2.15;;;;;;;17.52;47.39;94663.31;5067293;28;20112;-64
2021/06/21 09:01:08;;;;;;;3.35;1.63;;;;;;;17.22;47.47;94665.28;5069566;28;20187;-64
2021/06/21 09:03:34;;;;;;;3.92;1.90;;;;;;;16.77;49.77;94666.88;5065497;28;20162;-64
2021/06/21 09:06:00;;;;;;;3.58;1.40;;;;;;;18.01;46.40;94675.31;5076850;28;20112;-64
2021/06/21 09:08:25;;;;;;;7.18;1.83;;;;;;;17.26;47.98;94673.66;5066851;28;20352;-64
2021/06/21 09:10:51;;;;;;;4.82;1.70;;;;;;;17.76;46.73;94681.94;5072458;28;20101;-64
2021/06/21 09:13:17;;;;;;;3.25;1.70;;;;;;;17.86;46.91;94686.69;5067248;28;20427;-64
2021/06/21 09:15:44;;;;;;;2.90;1.55;;;;;;;18.05;46.69;94684.53;5072218;28;20490;-64
2021/06/21 09:18:35;;;;;;;8.55;1.83;;;;;;;17.85;46.82;94691.25;5066211;28;20266;-63
2021/06/21 09:21:20;;;;;;;3.50;1.80;;;;;;;18.31;45.39;94669.53;5070285;28;20616;-64
2021/06/21 09:23:47;;;;;;;3.35;1.65;;;;;;;17.30;47.95;94677.47;5073364;28;20290;-64
2021/06/21 09:26:28;;;;;;;6.90;1.40;;;;;;;18.58;45.31;94669.84;5069754;28;20174;-64
2021/06/21 09:28:55;;;;;;;4.25;1.73;;;;;;;18.76;45.10;94687.56;5046803;28;20588;-64
2021/06/21 09:31:21;;;;;;;5.05;2.17;;;;;;;18.98;44.76;94670.53;5045522;28;20578;-64
2021/06/21 09:33:46;;;;;;;4.50;1.73;;;;;;;17.43;47.56;94680.94;5063316;28;20187;-64
2021/06/21 09:36:34;;;;;;;5.25;1.70;;;;;;;19.49;43.88;94675.59;5061436;28;20073;-64
2021/06/21 09:39:19;;;;;;;4.20;1.80;;;;;;;19.31;42.46;94683.00;5062817;28;20125;-64
2021/06/21 09:42:02;;;;;;;5.72;2.13;;;;;;;19.55;42.47;94685.31;5067009;28;20097;-64
2021/06/21 09:44:51;;;;;;;3.33;1.77;;;;;;;20.28;41.23;94684.97;5073070;28;20080;-64
2021/06/21 09:47:25;;;;;;;3.53;1.67;;;;;;;18.75;44.03;94694.00;5070899;28;20120;-64
2021/06/21 09:50:13;;;;;;;1.83;1.40;;;;;;;18.84;44.04;94691.69;5078045;28;20217;-64
2021/06/21 09:52:38;;;;;;;4.78;1.65;;;;;;;19.85;42.13;94694.72;5065340;28;20089;-64
2021/06/21 09:55:13;;;;;;;3.33;1.50;;;;;;;19.31;41.29;94707.28;5066443;28;20105;-64
2021/06/21 09:57:38;;;;;;;2.95;1.63;;;;;;;18.75;44.12;94702.09;5065342;28;20099;-64
2021/06/21 10:00:06;;;;;;;3.47;1.63;;;;;;;19.10;43.25;94705.44;5066471;28;20085;-64
2021/06/21 10:02:31;;;;;;;1.35;1.25;;;;;;;19.40;42.55;94704.09;5066677;28;20111;-64
2021/06/21 10:04:56;;;;;;;3.90;1.73;;;;;;;20.56;41.01;94708.09;5069397;28;20170;-64
2021/06/21 10:07:35;;;;;;;1.90;1.27;;;;;;;20.29;40.91;94710.94;5070872;28;20108;-64
2021/06/21 10:10:05;;;;;;;2.63;1.33;;;;;;;19.38;42.80;94703.56;5067459;28;20177;-64
2021/06/21 10:12:30;;;;;;;5.15;1.83;;;;;;;16.12;50.29;94713.41;5066556;28;20089;-64
2021/06/21 10:14:56;;;;;;;4.55;1.70;;;;;;;19.46;42.88;94720.09;5068171;28;20147;-77
2021/06/21 10:17:21;;;;;;;2.65;1.60;;;;;;;19.01;42.02;94732.03;5075149;28;20092;-77
2021/06/21 10:19:47;;;;;;;2.53;1.30;;;;;;;18.21;43.81;94720.56;5054167;28;20095;-63
2021/06/21 10:22:12;;;;;;;6.75;1.65;;;;;;;17.52;46.33;94727.88;5084783;28;20127;-76
2021/06/21 10:24:38;;;;;;;4.72;1.85;;;;;;;18.58;43.99;94739.91;5075452;28;20081;-77
2021/06/21 10:27:07;;;;;;;7.07;1.80;;;;;;;18.47;43.27;94725.47;5059399;28;20105;-76
2021/06/21 10:29:34;;;;;;;6.90;2.15;;;;;;;19.93;40.95;94716.91;5073999;28;20699;-76
2021/06/21 10:32:00;;;;;;;2.83;1.98;;;;;;;19.53;41.52;94719.06;5079288;28;20150;-76
2021/06/21 10:34:26;;;;;;;4.15;1.90;;;;;;;19.21;42.54;94723.34;5076398;28;20177;-76
2021/06/21 10:36:55;;;;;;;3.70;1.83;;;;;;;17.11;46.28;94727.97;5096610;28;20076;-76
2021/06/21 10:39:20;;;;;;;2.70;1.55;;;;;;;19.36;42.19;94711.09;5063137;28;20605;-76
2021/06/21 10:42:22;;;;;;;2.80;1.70;;;;;;;19.18;41.64;94713.06;5084067;28;20119;-76
2021/06/21 10:44:52;;;;;;;3.17;1.70;;;;;;;19.24;42.01;94722.81;5049865;28;20135;-77
2021/06/21 10:47:38;;;;;;;2.65;1.50;;;;;;;19.35;40.87;94728.34;5079109;28;20123;-77
2021/06/21 10:50:05;;;;;;;4.93;1.65;;;;;;;18.27;44.08;94751.91;5079075;28;20108;-77
2021/06/21 10:52:31;;;;;;;3.53;1.83;;;;;;;19.14;41.48;94742.41;5072202;28;20108;-77
2021/06/21 10:55:21;;;;;;;2.28;1.50;;;;;;;19.14;42.45;94733.53;5087186;28;20104;-76
2021/06/21 10:57:58;;;;;;;2.80;1.45;;;;;;;18.13;43.53;94740.69;5082661;28;20097;-76
2021/06/21 11:00:42;;;;;;;3.60;1.80;;;;;;;17.57;45.23;94751.38;5066329;28;20092;-76
2021/06/21 11:03:23;;;;;;;5.30;2.10;;;;;;;17.62;45.44;94746.06;5038745;28;20188;-61
2021/06/21 11:05:49;;;;;;;3.15;1.77;;;;;;;17.04;46.71;94755.00;5074989;28;20635;-61
2021/06/21 11:08:19;;;;;;;2.90;2.00;;;;;;;16.05;50.18;94779.03;5062724;28;20077;-61
2021/06/21 11:10:46;;;;;;;3.42;1.63;;;;;;;16.26;49.15;94777.59;5072251;28;20112;-61
2021/06/21 11:13:36;;;;;;;2.87;1.83;;;;;;;17.03;47.75;94775.69;5047134;28;20541;-61
2021/06/21 11:16:14;;;;;;;5.35;1.80;;;;;;;16.64;48.86;94780.84;5085488;28;20100;-76
2021/06/21 11:18:40;;;;;;;3.70;1.83;;;;;;;17.59;46.30;94778.84;5100216;28;20142;-76
2021/06/21 11:21:12;;;;;;;2.63;1.70;;;;;;;17.65;46.33;94780.56;5069117;28;20099;-76
2021/06/21 11:23:42;;;;;;;2.00;1.58;;;;;;;16.43;50.05;94790.34;5086378;28;20109;-76
2021/06/21 11:26:07;;;;;;;2.60;1.75;;;;;;;16.39;49.58;94787.31;5078075;28;20124;-76
2021/06/21 11:28:43;;;;;;;4.22;1.73;;;;;;;17.62;46.85;94781.88;5069281;28;20557;-76
2021/06/21 11:31:18;;;;;;;3.33;1.85;;;;;;;17.32;47.49;94779.44;5084611;28;20441;-76
2021/06/21 11:34:00;;;;;;;2.15;1.73;;;;;;;17.01;47.82;94798.50;5090201;28;20124;-76
2021/06/21 11:36:42;;;;;;;3.85;1.90;;;;;;;17.74;47.46;94783.69;5088473;28;20104;-74
2021/06/21 11:39:21;;;;;;;2.58;1.70;;;;;;;18.37;46.26;94788.13;5076311;28;20112;-74